sensor_id;sensor_type;location;lat;lon;timestamp;temperature;humidity
27759;DHT22;15148;48.972;12.794;2023-03-29T00:01:31;1.10;99.90
27759;DHT22;15148;48.972;12.794;2023-03-29T00:06:37;1.10;99.90
27759;DHT22;15148;48.972;12.794;2023-03-29T00:11:39;1.20;99.90
27759;DHT22;15148;48.972;12.794;2023-03-29T00:16:41;1.20;99.90
27759;DHT22;15148;48.972;12.794;2023-03-29T00:21:45;1.20;99.90
27759;DHT22;15148;48.972;12.794;2023-03-29T00:26:47;1.20;99.90
27759;DHT22;15148;48.972;12.794;2023-03-29T00:31:49;1.30;99.90
27759;DHT22;15148;48.972;12.794;2023-03-29T00:36:54;1.30;99.90
27759;DHT22;15148;48.972;12.794;2023-03-29T00:41:59;1.40;99.90
27759;DHT22;15148;48.972;12.794;2023-03-29T00:47:01;1.30;99.90
27759;DHT22;15148;48.972;12.794;2023-03-29T00:52:04;1.40;99.90
27759;DHT22;15148;48.972;12.794;2023-03-29T00:57:06;1.40;99.90
27759;DHT22;15148;48.972;12.794;2023-03-29T01:02:10;1.30;99.90
27759;DHT22;15148;48.972;12.794;2023-03-29T01:07:46;1.30;99.90
27759;DHT22;15148;48.972;12.794;2023-03-29T01:13:11;1.30;99.90
27759;DHT22;15148;48.972;12.794;2023-03-29T01:18:13;1.30;99.90
27759;DHT22;15148;48.972;12.794;2023-03-29T01:28:48;1.40;99.90
27759;DHT22;15148;48.972;12.794;2023-03-29T01:34:06;1.40;99.90
27759;DHT22;15148;48.972;12.794;2023-03-29T01:39:11;1.50;99.90
27759;DHT22;15148;48.972;12.794;2023-03-29T01:54:58;1.50;99.90
27759;DHT22;15148;48.972;12.794;2023-03-29T02:00:02;1.60;99.90
27759;DHT22;15148;48.972;12.794;2023-03-29T02:05:13;1.60;99.90
27759;DHT22;15148;48.972;12.794;2023-03-29T02:10:16;1.60;99.90
27759;DHT22;15148;48.972;12.794;2023-03-29T02:15:20;1.60;99.90
27759;DHT22;15148;48.972;12.794;2023-03-29T02:20:26;1.70;99.90
27759;DHT22;15148;48.972;12.794;2023-03-29T02:25:31;1.70;99.90
27759;DHT22;15148;48.972;12.794;2023-03-29T02:31:02;1.70;99.90
27759;DHT22;15148;48.972;12.794;2023-03-29T02:36:13;1.70;99.90
27759;DHT22;15148;48.972;12.794;2023-03-29T02:41:16;1.70;99.90
27759;DHT22;15148;48.972;12.794;2023-03-29T02:46:19;1.80;99.90
27759;DHT22;15148;48.972;12.794;2023-03-29T02:51:30;1.80;99.90
27759;DHT22;15148;48.972;12.794;2023-03-29T02:56:45;1.80;99.90
27759;DHT22;15148;48.972;12.794;2023-03-29T03:01:48;1.80;99.90
27759;DHT22;15148;48.972;12.794;2023-03-29T03:06:50;1.80;99.90
27759;DHT22;15148;48.972;12.794;2023-03-29T03:11:52;1.90;99.90
27759;DHT22;15148;48.972;12.794;2023-03-29T03:16:54;1.80;99.90
27759;DHT22;15148;48.972;12.794;2023-03-29T03:21:56;1.80;99.90
27759;DHT22;15148;48.972;12.794;2023-03-29T03:26:58;1.80;99.90
27759;DHT22;15148;48.972;12.794;2023-03-29T03:31:59;1.90;99.90
27759;DHT22;15148;48.972;12.794;2023-03-29T03:37:28;1.80;99.90
27759;DHT22;15148;48.972;12.794;2023-03-29T03:42:30;1.70;99.90
27759;DHT22;15148;48.972;12.794;2023-03-29T03:47:34;1.80;99.90
27759;DHT22;15148;48.972;12.794;2023-03-29T03:52:51;1.80;99.90
27759;DHT22;15148;48.972;12.794;2023-03-29T03:57:54;1.70;99.90
27759;DHT22;15148;48.972;12.794;2023-03-29T04:02:56;1.70;99.90
27759;DHT22;15148;48.972;12.794;2023-03-29T04:07:59;1.70;99.90
27759;DHT22;15148;48.972;12.794;2023-03-29T04:13:24;1.70;99.90
27759;DHT22;15148;48.972;12.794;2023-03-29T04:18:59;1.80;99.90
27759;DHT22;15148;48.972;12.794;2023-03-29T04:24:02;1.70;99.90
27759;DHT22;15148;48.972;12.794;2023-03-29T04:29:09;1.60;99.90
27759;DHT22;15148;48.972;12.794;2023-03-29T04:34:19;1.50;99.90
27759;DHT22;15148;48.972;12.794;2023-03-29T04:39:24;1.50;99.90
27759;DHT22;15148;48.972;12.794;2023-03-29T04:44:35;1.50;99.90
27759;DHT22;15148;48.972;12.794;2023-03-29T04:49:41;1.50;99.90
27759;DHT22;15148;48.972;12.794;2023-03-29T04:54:51;1.50;99.90
27759;DHT22;15148;48.972;12.794;2023-03-29T04:59:58;1.50;99.90
27759;DHT22;15148;48.972;12.794;2023-03-29T05:05:18;1.50;99.90
27759;DHT22;15148;48.972;12.794;2023-03-29T05:10:23;1.40;99.90
27759;DHT22;15148;48.972;12.794;2023-03-29T05:15:26;1.40;99.90
27759;DHT22;15148;48.972;12.794;2023-03-29T05:20:28;1.40;99.90
27759;DHT22;15148;48.972;12.794;2023-03-29T05:25:32;1.40;99.90
27759;DHT22;15148;48.972;12.794;2023-03-29T05:30:34;1.50;99.90
27759;DHT22;15148;48.972;12.794;2023-03-29T05:36:49;1.50;99.90
27759;DHT22;15148;48.972;12.794;2023-03-29T05:41:52;1.40;99.90
27759;DHT22;15148;48.972;12.794;2023-03-29T05:47:05;1.50;99.90
27759;DHT22;15148;48.972;12.794;2023-03-29T05:52:08;1.50;99.90
27759;DHT22;15148;48.972;12.794;2023-03-29T05:57:11;1.50;99.90
27759;DHT22;15148;48.972;12.794;2023-03-29T06:02:14;1.60;99.90
27759;DHT22;15148;48.972;12.794;2023-03-29T06:07:23;1.60;99.90
27759;DHT22;15148;48.972;12.794;2023-03-29T06:12:43;1.60;99.90
27759;DHT22;15148;48.972;12.794;2023-03-29T06:17:46;1.70;99.90
27759;DHT22;15148;48.972;12.794;2023-03-29T06:22:48;1.70;99.90
27759;DHT22;15148;48.972;12.794;2023-03-29T06:27:51;1.80;99.90
27759;DHT22;15148;48.972;12.794;2023-03-29T06:32:54;1.80;99.90
27759;DHT22;15148;48.972;12.794;2023-03-29T06:38:15;1.80;99.90
27759;DHT22;15148;48.972;12.794;2023-03-29T06:43:29;1.90;99.90
27759;DHT22;15148;48.972;12.794;2023-03-29T06:48:41;2.00;99.90
27759;DHT22;15148;48.972;12.794;2023-03-29T06:53:43;2.10;99.90
27759;DHT22;15148;48.972;12.794;2023-03-29T06:58:45;2.20;99.90
27759;DHT22;15148;48.972;12.794;2023-03-29T07:04:06;2.30;99.90
27759;DHT22;15148;48.972;12.794;2023-03-29T07:09:33;2.30;99.90
27759;DHT22;15148;48.972;12.794;2023-03-29T07:14:59;2.40;99.90
27759;DHT22;15148;48.972;12.794;2023-03-29T07:20:21;2.70;99.90
27759;DHT22;15148;48.972;12.794;2023-03-29T07:25:32;2.90;99.90
27759;DHT22;15148;48.972;12.794;2023-03-29T07:30:35;3.00;99.90
27759;DHT22;15148;48.972;12.794;2023-03-29T07:35:52;3.20;99.90
27759;DHT22;15148;48.972;12.794;2023-03-29T07:40:55;3.30;99.90
27759;DHT22;15148;48.972;12.794;2023-03-29T07:46:19;3.50;99.90
27759;DHT22;15148;48.972;12.794;2023-03-29T07:51:21;3.60;99.90
27759;DHT22;15148;48.972;12.794;2023-03-29T07:56:31;3.70;99.90
27759;DHT22;15148;48.972;12.794;2023-03-29T08:01:53;3.90;99.90
27759;DHT22;15148;48.972;12.794;2023-03-29T08:07:03;4.00;99.90
27759;DHT22;15148;48.972;12.794;2023-03-29T08:12:24;4.00;99.90
27759;DHT22;15148;48.972;12.794;2023-03-29T08:17:30;4.20;99.90
27759;DHT22;15148;48.972;12.794;2023-03-29T08:22:33;4.30;99.90
27759;DHT22;15148;48.972;12.794;2023-03-29T08:27:55;4.30;99.90
27759;DHT22;15148;48.972;12.794;2023-03-29T08:33:13;4.50;99.90
27759;DHT22;15148;48.972;12.794;2023-03-29T08:38:16;4.50;99.90
27759;DHT22;15148;48.972;12.794;2023-03-29T08:43:33;4.50;99.90
27759;DHT22;15148;48.972;12.794;2023-03-29T08:48:57;4.60;99.90
27759;DHT22;15148;48.972;12.794;2023-03-29T08:54:16;4.70;99.90
27759;DHT22;15148;48.972;12.794;2023-03-29T08:59:43;4.80;99.90
27759;DHT22;15148;48.972;12.794;2023-03-29T09:04:49;4.80;99.90
27759;DHT22;15148;48.972;12.794;2023-03-29T09:10:03;4.90;99.90
27759;DHT22;15148;48.972;12.794;2023-03-29T09:21:40;4.90;99.90
27759;DHT22;15148;48.972;12.794;2023-03-29T09:27:13;5.00;99.90
27759;DHT22;15148;48.972;12.794;2023-03-29T09:32:46;5.20;99.90
27759;DHT22;15148;48.972;12.794;2023-03-29T09:37:45;5.30;99.90
27759;DHT22;15148;48.972;12.794;2023-03-29T09:42:50;5.50;99.90
27759;DHT22;15148;48.972;12.794;2023-03-29T09:48:13;5.50;99.90
27759;DHT22;15148;48.972;12.794;2023-03-29T09:53:20;5.50;99.90
27759;DHT22;15148;48.972;12.794;2023-03-29T09:58:32;5.50;99.90
27759;DHT22;15148;48.972;12.794;2023-03-29T10:03:35;5.60;99.90
27759;DHT22;15148;48.972;12.794;2023-03-29T10:08:50;5.50;99.90
27759;DHT22;15148;48.972;12.794;2023-03-29T10:14:12;5.60;99.90
27759;DHT22;15148;48.972;12.794;2023-03-29T10:19:31;5.70;99.90
27759;DHT22;15148;48.972;12.794;2023-03-29T10:24:35;5.80;99.90
27759;DHT22;15148;48.972;12.794;2023-03-29T10:29:39;5.90;99.90
27759;DHT22;15148;48.972;12.794;2023-03-29T10:34:44;6.00;99.90
27759;DHT22;15148;48.972;12.794;2023-03-29T10:39:48;6.10;99.90
27759;DHT22;15148;48.972;12.794;2023-03-29T10:44:56;6.20;99.90
27759;DHT22;15148;48.972;12.794;2023-03-29T10:49:58;6.20;99.90
27759;DHT22;15148;48.972;12.794;2023-03-29T10:55:00;6.20;99.90
27759;DHT22;15148;48.972;12.794;2023-03-29T11:05:26;6.20;99.90
27759;DHT22;15148;48.972;12.794;2023-03-29T11:16:22;6.30;99.90
27759;DHT22;15148;48.972;12.794;2023-03-29T11:32:33;6.40;99.90
27759;DHT22;15148;48.972;12.794;2023-03-29T11:43:03;6.60;99.90
27759;DHT22;15148;48.972;12.794;2023-03-29T11:48:15;6.90;99.90
27759;DHT22;15148;48.972;12.794;2023-03-29T11:53:49;7.10;99.90
27759;DHT22;15148;48.972;12.794;2023-03-29T11:58:58;7.20;99.90
27759;DHT22;15148;48.972;12.794;2023-03-29T12:04:28;7.30;99.90
27759;DHT22;15148;48.972;12.794;2023-03-29T12:09:37;7.40;99.90
27759;DHT22;15148;48.972;12.794;2023-03-29T12:20:21;7.40;99.90
27759;DHT22;15148;48.972;12.794;2023-03-29T12:41:52;7.60;99.90
27759;DHT22;15148;48.972;12.794;2023-03-29T12:47:18;7.70;99.90
27759;DHT22;15148;48.972;12.794;2023-03-29T12:52:22;7.70;99.90
27759;DHT22;15148;48.972;12.794;2023-03-29T12:57:37;7.80;99.90
27759;DHT22;15148;48.972;12.794;2023-03-29T13:02:41;7.80;99.90
27759;DHT22;15148;48.972;12.794;2023-03-29T13:07:46;7.80;99.90
27759;DHT22;15148;48.972;12.794;2023-03-29T13:12:48;7.80;99.90
27759;DHT22;15148;48.972;12.794;2023-03-29T13:18:01;7.80;99.90
27759;DHT22;15148;48.972;12.794;2023-03-29T13:23:17;7.90;99.90
27759;DHT22;15148;48.972;12.794;2023-03-29T13:33:49;7.80;99.90
27759;DHT22;15148;48.972;12.794;2023-03-29T13:38:53;7.80;99.90
27759;DHT22;15148;48.972;12.794;2023-03-29T13:43:56;7.80;99.90
27759;DHT22;15148;48.972;12.794;2023-03-29T13:49:20;7.80;99.90
27759;DHT22;15148;48.972;12.794;2023-03-29T13:54:38;7.90;99.90
27759;DHT22;15148;48.972;12.794;2023-03-29T14:04:55;8.10;99.90
27759;DHT22;15148;48.972;12.794;2023-03-29T14:09:57;8.20;99.90
27759;DHT22;15148;48.972;12.794;2023-03-29T14:15:02;8.30;99.90
27759;DHT22;15148;48.972;12.794;2023-03-29T14:20:05;8.50;99.90
27759;DHT22;15148;48.972;12.794;2023-03-29T14:25:15;8.50;99.90
27759;DHT22;15148;48.972;12.794;2023-03-29T14:30:24;8.60;99.90
27759;DHT22;15148;48.972;12.794;2023-03-29T14:35:29;8.70;99.90
27759;DHT22;15148;48.972;12.794;2023-03-29T14:40:32;8.80;99.90
27759;DHT22;15148;48.972;12.794;2023-03-29T14:45:35;8.90;99.90
27759;DHT22;15148;48.972;12.794;2023-03-29T14:50:38;8.90;99.90
27759;DHT22;15148;48.972;12.794;2023-03-29T14:55:41;9.10;99.90
27759;DHT22;15148;48.972;12.794;2023-03-29T15:00:48;9.10;99.90
27759;DHT22;15148;48.972;12.794;2023-03-29T15:05:56;9.20;99.90
27759;DHT22;15148;48.972;12.794;2023-03-29T15:10:59;9.30;99.90
27759;DHT22;15148;48.972;12.794;2023-03-29T15:16:01;9.40;99.90
27759;DHT22;15148;48.972;12.794;2023-03-29T15:21:08;9.50;99.90
27759;DHT22;15148;48.972;12.794;2023-03-29T15:26:14;9.50;99.90
27759;DHT22;15148;48.972;12.794;2023-03-29T15:31:25;9.50;99.90
27759;DHT22;15148;48.972;12.794;2023-03-29T15:36:27;9.40;99.90
27759;DHT22;15148;48.972;12.794;2023-03-29T15:41:29;9.30;99.90
27759;DHT22;15148;48.972;12.794;2023-03-29T15:46:31;9.20;99.90
27759;DHT22;15148;48.972;12.794;2023-03-29T15:51:33;9.20;99.90
27759;DHT22;15148;48.972;12.794;2023-03-29T15:56:43;9.20;99.90
27759;DHT22;15148;48.972;12.794;2023-03-29T16:01:47;9.10;99.90
27759;DHT22;15148;48.972;12.794;2023-03-29T16:06:51;9.00;99.90
27759;DHT22;15148;48.972;12.794;2023-03-29T16:11:55;9.00;99.90
27759;DHT22;15148;48.972;12.794;2023-03-29T16:16:58;8.90;99.90
27759;DHT22;15148;48.972;12.794;2023-03-29T16:22:02;8.90;99.90
27759;DHT22;15148;48.972;12.794;2023-03-29T16:27:07;8.90;99.90
27759;DHT22;15148;48.972;12.794;2023-03-29T16:32:09;8.90;99.90
27759;DHT22;15148;48.972;12.794;2023-03-29T16:37:11;8.80;99.90
27759;DHT22;15148;48.972;12.794;2023-03-29T16:42:14;8.80;99.90
27759;DHT22;15148;48.972;12.794;2023-03-29T16:47:15;8.70;99.90
27759;DHT22;15148;48.972;12.794;2023-03-29T16:52:17;8.70;99.90
27759;DHT22;15148;48.972;12.794;2023-03-29T16:57:19;8.60;99.90
27759;DHT22;15148;48.972;12.794;2023-03-29T17:02:21;8.50;99.90
27759;DHT22;15148;48.972;12.794;2023-03-29T17:07:23;8.50;99.90
27759;DHT22;15148;48.972;12.794;2023-03-29T17:12:24;8.50;99.90
27759;DHT22;15148;48.972;12.794;2023-03-29T17:17:26;8.30;99.90
27759;DHT22;15148;48.972;12.794;2023-03-29T17:22:28;8.30;99.90
27759;DHT22;15148;48.972;12.794;2023-03-29T17:27:30;8.20;99.90
27759;DHT22;15148;48.972;12.794;2023-03-29T17:32:32;8.10;99.90
27759;DHT22;15148;48.972;12.794;2023-03-29T17:37:34;8.10;99.90
27759;DHT22;15148;48.972;12.794;2023-03-29T17:42:36;8.00;99.90
27759;DHT22;15148;48.972;12.794;2023-03-29T17:47:38;8.00;99.90
27759;DHT22;15148;48.972;12.794;2023-03-29T17:52:41;7.90;99.90
27759;DHT22;15148;48.972;12.794;2023-03-29T17:57:42;7.80;99.90
27759;DHT22;15148;48.972;12.794;2023-03-29T18:02:44;7.80;99.90
27759;DHT22;15148;48.972;12.794;2023-03-29T18:07:46;7.70;99.90
27759;DHT22;15148;48.972;12.794;2023-03-29T18:12:48;7.60;99.90
27759;DHT22;15148;48.972;12.794;2023-03-29T18:17:50;7.50;99.90
27759;DHT22;15148;48.972;12.794;2023-03-29T18:22:52;7.40;99.90
27759;DHT22;15148;48.972;12.794;2023-03-29T18:27:54;7.40;99.90
27759;DHT22;15148;48.972;12.794;2023-03-29T18:32:56;7.10;99.90
27759;DHT22;15148;48.972;12.794;2023-03-29T18:37:58;6.90;99.90
27759;DHT22;15148;48.972;12.794;2023-03-29T18:43:00;6.60;99.90
27759;DHT22;15148;48.972;12.794;2023-03-29T18:48:02;6.50;99.90
27759;DHT22;15148;48.972;12.794;2023-03-29T18:53:06;6.50;99.90
27759;DHT22;15148;48.972;12.794;2023-03-29T18:58:09;6.30;99.90
27759;DHT22;15148;48.972;12.794;2023-03-29T19:03:11;6.10;99.90
27759;DHT22;15148;48.972;12.794;2023-03-29T19:08:13;5.90;99.90
27759;DHT22;15148;48.972;12.794;2023-03-29T19:13:14;5.80;99.90
27759;DHT22;15148;48.972;12.794;2023-03-29T19:18:16;5.80;99.90
27759;DHT22;15148;48.972;12.794;2023-03-29T19:23:19;5.70;99.90
27759;DHT22;15148;48.972;12.794;2023-03-29T19:28:23;5.70;99.90
27759;DHT22;15148;48.972;12.794;2023-03-29T19:33:25;5.60;99.90
27759;DHT22;15148;48.972;12.794;2023-03-29T19:38:27;5.60;99.90
27759;DHT22;15148;48.972;12.794;2023-03-29T19:43:29;5.60;99.90
27759;DHT22;15148;48.972;12.794;2023-03-29T19:48:31;5.60;99.90
27759;DHT22;15148;48.972;12.794;2023-03-29T19:53:33;5.70;99.90
27759;DHT22;15148;48.972;12.794;2023-03-29T19:58:39;5.70;99.90
27759;DHT22;15148;48.972;12.794;2023-03-29T20:03:41;5.60;99.90
27759;DHT22;15148;48.972;12.794;2023-03-29T20:08:44;5.60;99.90
27759;DHT22;15148;48.972;12.794;2023-03-29T20:13:46;5.60;99.90
27759;DHT22;15148;48.972;12.794;2023-03-29T20:18:48;5.60;99.90
27759;DHT22;15148;48.972;12.794;2023-03-29T20:23:50;5.60;99.90
27759;DHT22;15148;48.972;12.794;2023-03-29T20:28:52;5.60;99.90
27759;DHT22;15148;48.972;12.794;2023-03-29T20:33:54;5.70;99.90
27759;DHT22;15148;48.972;12.794;2023-03-29T20:38:58;5.70;99.90
27759;DHT22;15148;48.972;12.794;2023-03-29T20:44:00;5.70;99.90
27759;DHT22;15148;48.972;12.794;2023-03-29T20:49:05;5.80;99.90
27759;DHT22;15148;48.972;12.794;2023-03-29T20:54:09;5.80;99.90
27759;DHT22;15148;48.972;12.794;2023-03-29T20:59:11;5.90;99.90
27759;DHT22;15148;48.972;12.794;2023-03-29T21:04:13;5.90;99.90
27759;DHT22;15148;48.972;12.794;2023-03-29T21:09:16;6.00;99.90
27759;DHT22;15148;48.972;12.794;2023-03-29T21:14:19;6.00;99.90
27759;DHT22;15148;48.972;12.794;2023-03-29T21:19:21;6.00;99.90
27759;DHT22;15148;48.972;12.794;2023-03-29T21:24:24;6.00;99.90
27759;DHT22;15148;48.972;12.794;2023-03-29T21:29:27;6.10;99.90
27759;DHT22;15148;48.972;12.794;2023-03-29T21:34:28;6.20;99.90
27759;DHT22;15148;48.972;12.794;2023-03-29T21:39:30;6.20;99.90
27759;DHT22;15148;48.972;12.794;2023-03-29T21:44:32;6.20;99.90
27759;DHT22;15148;48.972;12.794;2023-03-29T21:49:36;6.20;99.90
27759;DHT22;15148;48.972;12.794;2023-03-29T21:54:38;6.20;99.90
27759;DHT22;15148;48.972;12.794;2023-03-29T21:59:40;6.20;99.90
27759;DHT22;15148;48.972;12.794;2023-03-29T22:04:42;6.30;99.90
27759;DHT22;15148;48.972;12.794;2023-03-29T22:09:43;6.30;99.90
27759;DHT22;15148;48.972;12.794;2023-03-29T22:14:47;6.30;99.90
27759;DHT22;15148;48.972;12.794;2023-03-29T22:19:49;6.30;99.90
27759;DHT22;15148;48.972;12.794;2023-03-29T22:24:52;6.30;99.90
27759;DHT22;15148;48.972;12.794;2023-03-29T22:29:56;6.40;99.90
27759;DHT22;15148;48.972;12.794;2023-03-29T22:34:59;6.40;99.90
27759;DHT22;15148;48.972;12.794;2023-03-29T22:40:01;6.40;99.90
27759;DHT22;15148;48.972;12.794;2023-03-29T22:45:03;6.40;99.90
27759;DHT22;15148;48.972;12.794;2023-03-29T22:50:05;6.40;99.90
27759;DHT22;15148;48.972;12.794;2023-03-29T22:55:08;6.40;99.90
27759;DHT22;15148;48.972;12.794;2023-03-29T23:00:10;6.50;99.90
27759;DHT22;15148;48.972;12.794;2023-03-29T23:05:13;6.60;99.90
27759;DHT22;15148;48.972;12.794;2023-03-29T23:10:15;6.60;99.90
27759;DHT22;15148;48.972;12.794;2023-03-29T23:15:17;6.60;99.90
27759;DHT22;15148;48.972;12.794;2023-03-29T23:20:23;6.60;99.90
27759;DHT22;15148;48.972;12.794;2023-03-29T23:25:25;6.60;99.90
27759;DHT22;15148;48.972;12.794;2023-03-29T23:30:27;6.70;99.90
27759;DHT22;15148;48.972;12.794;2023-03-29T23:35:30;6.60;99.90
27759;DHT22;15148;48.972;12.794;2023-03-29T23:40:32;6.60;99.90
27759;DHT22;15148;48.972;12.794;2023-03-29T23:45:35;6.70;99.90
27759;DHT22;15148;48.972;12.794;2023-03-29T23:50:37;6.70;99.90
27759;DHT22;15148;48.972;12.794;2023-03-29T23:55:39;6.70;99.90
